sensor_id;sensor_type;location;lat;lon;timestamp;P1;durP1;ratioP1;P2;durP2;ratioP2
7406;SDS011;3745;56.964;24.128;2023-02-25T00:01:45;29.63;;;12.80;;
7406;SDS011;3745;56.964;24.128;2023-02-25T00:04:11;25.33;;;12.82;;
7406;SDS011;3745;56.964;24.128;2023-02-25T00:06:37;25.83;;;11.77;;
7406;SDS011;3745;56.964;24.128;2023-02-25T00:09:02;26.58;;;11.77;;
7406;SDS011;3745;56.964;24.128;2023-02-25T00:11:29;27.60;;;11.32;;
7406;SDS011;3745;56.964;24.128;2023-02-25T00:13:55;24.20;;;10.98;;
7406;SDS011;3745;56.964;24.128;2023-02-25T00:16:21;22.02;;;11.20;;
7406;SDS011;3745;56.964;24.128;2023-02-25T00:18:56;25.45;;;11.00;;
7406;SDS011;3745;56.964;24.128;2023-02-25T00:21:23;24.73;;;11.93;;
7406;SDS011;3745;56.964;24.128;2023-02-25T00:23:49;25.15;;;11.20;;
7406;SDS011;3745;56.964;24.128;2023-02-25T00:26:18;26.17;;;11.55;;
7406;SDS011;3745;56.964;24.128;2023-02-25T00:28:43;27.08;;;11.30;;
7406;SDS011;3745;56.964;24.128;2023-02-25T00:31:20;25.23;;;11.68;;
7406;SDS011;3745;56.964;24.128;2023-02-25T00:33:48;22.73;;;10.20;;
7406;SDS011;3745;56.964;24.128;2023-02-25T00:36:18;18.27;;;9.63;;
7406;SDS011;3745;56.964;24.128;2023-02-25T00:38:49;20.77;;;9.45;;
7406;SDS011;3745;56.964;24.128;2023-02-25T00:41:18;26.77;;;10.00;;
7406;SDS011;3745;56.964;24.128;2023-02-25T00:43:50;21.90;;;9.82;;
7406;SDS011;3745;56.964;24.128;2023-02-25T00:46:17;21.35;;;9.95;;
7406;SDS011;3745;56.964;24.128;2023-02-25T00:48:43;23.92;;;10.13;;
7406;SDS011;3745;56.964;24.128;2023-02-25T00:51:27;20.38;;;9.65;;
7406;SDS011;3745;56.964;24.128;2023-02-25T00:53:55;22.08;;;10.25;;
7406;SDS011;3745;56.964;24.128;2023-02-25T00:56:22;19.33;;;9.80;;
7406;SDS011;3745;56.964;24.128;2023-02-25T00:58:49;22.40;;;10.48;;
7406;SDS011;3745;56.964;24.128;2023-02-25T01:01:21;20.33;;;10.18;;
7406;SDS011;3745;56.964;24.128;2023-02-25T01:03:49;22.20;;;10.63;;
7406;SDS011;3745;56.964;24.128;2023-02-25T01:06:16;20.15;;;11.00;;
7406;SDS011;3745;56.964;24.128;2023-02-25T01:08:42;24.77;;;10.52;;
7406;SDS011;3745;56.964;24.128;2023-02-25T01:11:12;20.00;;;10.48;;
7406;SDS011;3745;56.964;24.128;2023-02-25T01:13:39;16.45;;;9.68;;
7406;SDS011;3745;56.964;24.128;2023-02-25T01:16:12;21.00;;;10.35;;
7406;SDS011;3745;56.964;24.128;2023-02-25T01:18:39;19.75;;;10.55;;
7406;SDS011;3745;56.964;24.128;2023-02-25T01:21:06;20.58;;;10.15;;
7406;SDS011;3745;56.964;24.128;2023-02-25T01:23:32;22.38;;;9.93;;
7406;SDS011;3745;56.964;24.128;2023-02-25T01:25:57;20.23;;;10.20;;
7406;SDS011;3745;56.964;24.128;2023-02-25T01:28:23;24.02;;;10.93;;
7406;SDS011;3745;56.964;24.128;2023-02-25T01:30:48;25.75;;;11.68;;
7406;SDS011;3745;56.964;24.128;2023-02-25T01:33:14;22.20;;;11.05;;
7406;SDS011;3745;56.964;24.128;2023-02-25T01:35:39;29.77;;;12.43;;
7406;SDS011;3745;56.964;24.128;2023-02-25T01:38:05;30.75;;;12.07;;
7406;SDS011;3745;56.964;24.128;2023-02-25T01:40:31;30.63;;;12.93;;
7406;SDS011;3745;56.964;24.128;2023-02-25T01:42:56;28.20;;;11.82;;
7406;SDS011;3745;56.964;24.128;2023-02-25T01:45:24;23.75;;;11.50;;
7406;SDS011;3745;56.964;24.128;2023-02-25T01:48:04;28.48;;;10.90;;
7406;SDS011;3745;56.964;24.128;2023-02-25T01:50:50;26.33;;;12.10;;
7406;SDS011;3745;56.964;24.128;2023-02-25T01:53:25;27.92;;;12.85;;
7406;SDS011;3745;56.964;24.128;2023-02-25T01:55:54;30.30;;;11.57;;
7406;SDS011;3745;56.964;24.128;2023-02-25T01:58:22;20.13;;;9.98;;
7406;SDS011;3745;56.964;24.128;2023-02-25T02:00:51;20.27;;;10.27;;
7406;SDS011;3745;56.964;24.128;2023-02-25T02:03:30;23.27;;;10.13;;
7406;SDS011;3745;56.964;24.128;2023-02-25T02:06:18;22.58;;;10.15;;
7406;SDS011;3745;56.964;24.128;2023-02-25T02:08:48;19.60;;;9.18;;
7406;SDS011;3745;56.964;24.128;2023-02-25T02:11:14;21.67;;;10.27;;
7406;SDS011;3745;56.964;24.128;2023-02-25T02:13:41;22.42;;;10.02;;
7406;SDS011;3745;56.964;24.128;2023-02-25T02:18:56;21.67;;;10.05;;
7406;SDS011;3745;56.964;24.128;2023-02-25T02:32:49;18.77;;;9.23;;
7406;SDS011;3745;56.964;24.128;2023-02-25T02:35:25;18.65;;;8.55;;
7406;SDS011;3745;56.964;24.128;2023-02-25T02:40:53;19.00;;;8.55;;
7406;SDS011;3745;56.964;24.128;2023-02-25T02:46:17;17.20;;;8.80;;
7406;SDS011;3745;56.964;24.128;2023-02-25T02:49:05;18.10;;;8.73;;
7406;SDS011;3745;56.964;24.128;2023-02-25T02:51:45;16.00;;;8.70;;
7406;SDS011;3745;56.964;24.128;2023-02-25T02:54:15;14.13;;;8.43;;
7406;SDS011;3745;56.964;24.128;2023-02-25T02:56:43;14.00;;;8.38;;
7406;SDS011;3745;56.964;24.128;2023-02-25T02:59:19;18.35;;;9.32;;
7406;SDS011;3745;56.964;24.128;2023-02-25T03:02:03;17.70;;;8.23;;
7406;SDS011;3745;56.964;24.128;2023-02-25T03:04:36;18.10;;;8.77;;
7406;SDS011;3745;56.964;24.128;2023-02-25T03:07:04;15.50;;;8.75;;
7406;SDS011;3745;56.964;24.128;2023-02-25T03:09:39;16.23;;;9.07;;
7406;SDS011;3745;56.964;24.128;2023-02-25T03:12:09;18.88;;;9.00;;
7406;SDS011;3745;56.964;24.128;2023-02-25T03:14:35;17.52;;;8.90;;
7406;SDS011;3745;56.964;24.128;2023-02-25T03:19:36;21.10;;;8.68;;
7406;SDS011;3745;56.964;24.128;2023-02-25T03:22:17;16.23;;;9.40;;
7406;SDS011;3745;56.964;24.128;2023-02-25T03:24:47;18.77;;;8.93;;
7406;SDS011;3745;56.964;24.128;2023-02-25T03:27:32;17.83;;;8.65;;
7406;SDS011;3745;56.964;24.128;2023-02-25T03:30:05;16.88;;;8.63;;
7406;SDS011;3745;56.964;24.128;2023-02-25T03:32:33;14.52;;;7.88;;
7406;SDS011;3745;56.964;24.128;2023-02-25T03:35:03;16.10;;;8.40;;
7406;SDS011;3745;56.964;24.128;2023-02-25T03:37:33;19.10;;;9.15;;
7406;SDS011;3745;56.964;24.128;2023-02-25T03:40:03;17.35;;;8.88;;
7406;SDS011;3745;56.964;24.128;2023-02-25T03:42:47;18.15;;;8.75;;
7406;SDS011;3745;56.964;24.128;2023-02-25T03:45:18;17.42;;;9.02;;
7406;SDS011;3745;56.964;24.128;2023-02-25T03:47:45;17.95;;;8.55;;
7406;SDS011;3745;56.964;24.128;2023-02-25T03:50:17;16.33;;;8.65;;
7406;SDS011;3745;56.964;24.128;2023-02-25T03:52:46;17.27;;;8.38;;
7406;SDS011;3745;56.964;24.128;2023-02-25T03:55:13;17.38;;;8.85;;
7406;SDS011;3745;56.964;24.128;2023-02-25T03:57:41;17.58;;;8.98;;
7406;SDS011;3745;56.964;24.128;2023-02-25T04:00:16;17.20;;;8.82;;
7406;SDS011;3745;56.964;24.128;2023-02-25T04:02:49;19.60;;;9.15;;
7406;SDS011;3745;56.964;24.128;2023-02-25T04:05:16;18.10;;;8.80;;
7406;SDS011;3745;56.964;24.128;2023-02-25T04:07:44;16.30;;;9.50;;
7406;SDS011;3745;56.964;24.128;2023-02-25T04:10:11;15.48;;;8.60;;
7406;SDS011;3745;56.964;24.128;2023-02-25T04:12:38;19.52;;;9.30;;
7406;SDS011;3745;56.964;24.128;2023-02-25T04:15:04;20.23;;;9.45;;
7406;SDS011;3745;56.964;24.128;2023-02-25T04:17:31;18.48;;;9.13;;
7406;SDS011;3745;56.964;24.128;2023-02-25T04:19:57;18.70;;;9.52;;
7406;SDS011;3745;56.964;24.128;2023-02-25T04:22:22;17.63;;;8.73;;
7406;SDS011;3745;56.964;24.128;2023-02-25T04:24:48;14.90;;;7.55;;
7406;SDS011;3745;56.964;24.128;2023-02-25T04:27:14;17.13;;;8.15;;
7406;SDS011;3745;56.964;24.128;2023-02-25T04:29:40;14.88;;;7.55;;
7406;SDS011;3745;56.964;24.128;2023-02-25T04:32:07;12.98;;;7.43;;
7406;SDS011;3745;56.964;24.128;2023-02-25T04:34:36;11.95;;;7.20;;
7406;SDS011;3745;56.964;24.128;2023-02-25T04:37:02;12.77;;;7.68;;
7406;SDS011;3745;56.964;24.128;2023-02-25T04:39:30;12.27;;;6.90;;
7406;SDS011;3745;56.964;24.128;2023-02-25T04:41:56;12.23;;;7.45;;
7406;SDS011;3745;56.964;24.128;2023-02-25T04:44:23;13.05;;;6.97;;
7406;SDS011;3745;56.964;24.128;2023-02-25T04:46:49;14.30;;;7.38;;
7406;SDS011;3745;56.964;24.128;2023-02-25T04:49:16;14.35;;;7.85;;
7406;SDS011;3745;56.964;24.128;2023-02-25T04:51:45;12.13;;;7.00;;
7406;SDS011;3745;56.964;24.128;2023-02-25T04:54:13;13.77;;;7.45;;
7406;SDS011;3745;56.964;24.128;2023-02-25T04:56:39;16.60;;;7.50;;
7406;SDS011;3745;56.964;24.128;2023-02-25T04:59:06;11.38;;;7.10;;
7406;SDS011;3745;56.964;24.128;2023-02-25T05:01:31;12.23;;;7.43;;
7406;SDS011;3745;56.964;24.128;2023-02-25T05:03:58;14.82;;;7.88;;
7406;SDS011;3745;56.964;24.128;2023-02-25T05:06:27;13.85;;;7.35;;
7406;SDS011;3745;56.964;24.128;2023-02-25T05:08:54;12.15;;;6.97;;
7406;SDS011;3745;56.964;24.128;2023-02-25T05:11:21;11.98;;;6.93;;
7406;SDS011;3745;56.964;24.128;2023-02-25T05:13:49;13.07;;;7.20;;
7406;SDS011;3745;56.964;24.128;2023-02-25T05:16:15;14.82;;;7.28;;
7406;SDS011;3745;56.964;24.128;2023-02-25T05:18:42;12.63;;;6.95;;
7406;SDS011;3745;56.964;24.128;2023-02-25T05:21:09;18.10;;;7.97;;
7406;SDS011;3745;56.964;24.128;2023-02-25T05:23:39;16.23;;;7.95;;
7406;SDS011;3745;56.964;24.128;2023-02-25T05:26:06;12.95;;;7.20;;
7406;SDS011;3745;56.964;24.128;2023-02-25T05:28:32;15.63;;;7.40;;
7406;SDS011;3745;56.964;24.128;2023-02-25T05:30:58;14.75;;;8.32;;
7406;SDS011;3745;56.964;24.128;2023-02-25T05:33:24;13.88;;;7.57;;
7406;SDS011;3745;56.964;24.128;2023-02-25T05:35:50;14.93;;;7.75;;
7406;SDS011;3745;56.964;24.128;2023-02-25T05:38:16;13.38;;;7.47;;
7406;SDS011;3745;56.964;24.128;2023-02-25T05:40:41;14.50;;;7.28;;
7406;SDS011;3745;56.964;24.128;2023-02-25T05:43:07;13.25;;;7.32;;
7406;SDS011;3745;56.964;24.128;2023-02-25T05:45:33;13.48;;;6.75;;
7406;SDS011;3745;56.964;24.128;2023-02-25T05:47:59;12.90;;;7.10;;
7406;SDS011;3745;56.964;24.128;2023-02-25T05:50:25;13.18;;;7.28;;
7406;SDS011;3745;56.964;24.128;2023-02-25T05:52:52;13.57;;;7.38;;
7406;SDS011;3745;56.964;24.128;2023-02-25T05:55:17;13.90;;;7.57;;
7406;SDS011;3745;56.964;24.128;2023-02-25T05:57:43;16.02;;;8.10;;
7406;SDS011;3745;56.964;24.128;2023-02-25T06:00:09;14.23;;;7.68;;
7406;SDS011;3745;56.964;24.128;2023-02-25T06:02:39;14.95;;;7.40;;
7406;SDS011;3745;56.964;24.128;2023-02-25T06:05:06;11.80;;;7.20;;
7406;SDS011;3745;56.964;24.128;2023-02-25T06:07:32;14.00;;;7.85;;
7406;SDS011;3745;56.964;24.128;2023-02-25T06:09:58;12.73;;;7.60;;
7406;SDS011;3745;56.964;24.128;2023-02-25T06:12:28;15.48;;;8.02;;
7406;SDS011;3745;56.964;24.128;2023-02-25T06:14:55;13.68;;;7.55;;
7406;SDS011;3745;56.964;24.128;2023-02-25T06:17:21;16.30;;;7.82;;
7406;SDS011;3745;56.964;24.128;2023-02-25T06:19:50;15.73;;;8.00;;
7406;SDS011;3745;56.964;24.128;2023-02-25T06:22:17;15.02;;;7.50;;
7406;SDS011;3745;56.964;24.128;2023-02-25T06:24:44;14.90;;;8.20;;
7406;SDS011;3745;56.964;24.128;2023-02-25T06:27:09;17.98;;;7.88;;
7406;SDS011;3745;56.964;24.128;2023-02-25T06:29:35;12.85;;;7.28;;
7406;SDS011;3745;56.964;24.128;2023-02-25T06:32:11;14.20;;;7.90;;
7406;SDS011;3745;56.964;24.128;2023-02-25T06:34:37;13.27;;;7.30;;
7406;SDS011;3745;56.964;24.128;2023-02-25T06:37:04;14.75;;;8.00;;
7406;SDS011;3745;56.964;24.128;2023-02-25T06:39:30;14.00;;;7.97;;
7406;SDS011;3745;56.964;24.128;2023-02-25T06:41:56;16.85;;;8.25;;
7406;SDS011;3745;56.964;24.128;2023-02-25T06:44:22;14.93;;;7.68;;
7406;SDS011;3745;56.964;24.128;2023-02-25T06:46:50;11.95;;;8.00;;
7406;SDS011;3745;56.964;24.128;2023-02-25T06:49:19;12.75;;;8.00;;
7406;SDS011;3745;56.964;24.128;2023-02-25T06:51:45;15.25;;;8.50;;
7406;SDS011;3745;56.964;24.128;2023-02-25T06:54:14;13.80;;;8.27;;
7406;SDS011;3745;56.964;24.128;2023-02-25T06:56:41;14.82;;;8.02;;
7406;SDS011;3745;56.964;24.128;2023-02-25T06:59:07;15.70;;;8.88;;
7406;SDS011;3745;56.964;24.128;2023-02-25T07:01:32;18.55;;;9.50;;
7406;SDS011;3745;56.964;24.128;2023-02-25T07:03:58;17.17;;;9.70;;
7406;SDS011;3745;56.964;24.128;2023-02-25T07:06:24;20.42;;;9.70;;
7406;SDS011;3745;56.964;24.128;2023-02-25T07:08:52;20.50;;;10.48;;
7406;SDS011;3745;56.964;24.128;2023-02-25T07:13:45;17.95;;;10.48;;
7406;SDS011;3745;56.964;24.128;2023-02-25T07:16:12;21.65;;;11.93;;
7406;SDS011;3745;56.964;24.128;2023-02-25T07:18:39;22.50;;;12.43;;
7406;SDS011;3745;56.964;24.128;2023-02-25T07:21:05;35.97;;;17.13;;
7406;SDS011;3745;56.964;24.128;2023-02-25T07:23:32;33.85;;;14.23;;
7406;SDS011;3745;56.964;24.128;2023-02-25T07:26:02;20.38;;;11.23;;
7406;SDS011;3745;56.964;24.128;2023-02-25T07:28:32;19.25;;;9.70;;
7406;SDS011;3745;56.964;24.128;2023-02-25T07:31:01;18.42;;;10.60;;
7406;SDS011;3745;56.964;24.128;2023-02-25T07:33:27;21.67;;;10.80;;
7406;SDS011;3745;56.964;24.128;2023-02-25T07:35:54;20.95;;;9.90;;
7406;SDS011;3745;56.964;24.128;2023-02-25T07:38:20;21.63;;;10.50;;
7406;SDS011;3745;56.964;24.128;2023-02-25T07:40:46;18.50;;;9.80;;
7406;SDS011;3745;56.964;24.128;2023-02-25T07:43:11;19.38;;;10.30;;
7406;SDS011;3745;56.964;24.128;2023-02-25T07:45:37;19.02;;;10.18;;
7406;SDS011;3745;56.964;24.128;2023-02-25T07:48:03;21.25;;;11.32;;
7406;SDS011;3745;56.964;24.128;2023-02-25T07:50:28;20.85;;;11.27;;
7406;SDS011;3745;56.964;24.128;2023-02-25T07:52:54;24.52;;;11.98;;
7406;SDS011;3745;56.964;24.128;2023-02-25T07:55:19;19.45;;;11.50;;
7406;SDS011;3745;56.964;24.128;2023-02-25T07:57:45;24.77;;;11.50;;
7406;SDS011;3745;56.964;24.128;2023-02-25T08:00:11;28.27;;;12.65;;
7406;SDS011;3745;56.964;24.128;2023-02-25T08:02:36;26.98;;;12.60;;
7406;SDS011;3745;56.964;24.128;2023-02-25T08:05:02;24.00;;;12.27;;
7406;SDS011;3745;56.964;24.128;2023-02-25T08:07:29;25.08;;;12.95;;
7406;SDS011;3745;56.964;24.128;2023-02-25T08:09:55;31.02;;;14.88;;
7406;SDS011;3745;56.964;24.128;2023-02-25T08:12:21;26.23;;;13.65;;
7406;SDS011;3745;56.964;24.128;2023-02-25T08:14:47;26.20;;;13.35;;
7406;SDS011;3745;56.964;24.128;2023-02-25T08:17:13;29.23;;;13.65;;
7406;SDS011;3745;56.964;24.128;2023-02-25T08:19:39;27.13;;;13.02;;
7406;SDS011;3745;56.964;24.128;2023-02-25T08:22:05;34.10;;;15.57;;
7406;SDS011;3745;56.964;24.128;2023-02-25T08:24:32;28.20;;;14.77;;
7406;SDS011;3745;56.964;24.128;2023-02-25T08:26:58;33.03;;;15.30;;
7406;SDS011;3745;56.964;24.128;2023-02-25T08:29:24;33.88;;;17.05;;
7406;SDS011;3745;56.964;24.128;2023-02-25T08:31:50;34.70;;;14.65;;
7406;SDS011;3745;56.964;24.128;2023-02-25T08:34:16;36.80;;;17.52;;
7406;SDS011;3745;56.964;24.128;2023-02-25T08:36:42;33.72;;;15.05;;
7406;SDS011;3745;56.964;24.128;2023-02-25T08:39:08;24.08;;;12.75;;
7406;SDS011;3745;56.964;24.128;2023-02-25T08:41:35;22.88;;;12.30;;
7406;SDS011;3745;56.964;24.128;2023-02-25T08:44:01;24.40;;;13.15;;
7406;SDS011;3745;56.964;24.128;2023-02-25T08:46:28;21.95;;;12.40;;
7406;SDS011;3745;56.964;24.128;2023-02-25T08:48:56;21.73;;;12.10;;
7406;SDS011;3745;56.964;24.128;2023-02-25T08:51:22;16.63;;;9.93;;
7406;SDS011;3745;56.964;24.128;2023-02-25T08:53:57;16.83;;;9.43;;
7406;SDS011;3745;56.964;24.128;2023-02-25T08:56:24;11.70;;;7.47;;
7406;SDS011;3745;56.964;24.128;2023-02-25T08:58:50;12.30;;;7.30;;
7406;SDS011;3745;56.964;24.128;2023-02-25T09:01:16;13.20;;;8.07;;
7406;SDS011;3745;56.964;24.128;2023-02-25T09:03:43;12.20;;;7.68;;
7406;SDS011;3745;56.964;24.128;2023-02-25T09:06:21;14.93;;;8.23;;
7406;SDS011;3745;56.964;24.128;2023-02-25T09:08:48;10.45;;;7.28;;
7406;SDS011;3745;56.964;24.128;2023-02-25T09:11:15;10.70;;;7.05;;
7406;SDS011;3745;56.964;24.128;2023-02-25T09:13:40;10.95;;;7.40;;
7406;SDS011;3745;56.964;24.128;2023-02-25T09:16:06;11.13;;;7.13;;
7406;SDS011;3745;56.964;24.128;2023-02-25T09:18:32;12.52;;;7.53;;
7406;SDS011;3745;56.964;24.128;2023-02-25T09:20:57;7.97;;;6.13;;
7406;SDS011;3745;56.964;24.128;2023-02-25T09:23:23;7.80;;;6.60;;
7406;SDS011;3745;56.964;24.128;2023-02-25T09:25:48;8.73;;;5.88;;
7406;SDS011;3745;56.964;24.128;2023-02-25T09:28:14;8.63;;;5.47;;
7406;SDS011;3745;56.964;24.128;2023-02-25T09:30:43;7.70;;;5.65;;
7406;SDS011;3745;56.964;24.128;2023-02-25T09:33:10;8.13;;;6.30;;
7406;SDS011;3745;56.964;24.128;2023-02-25T09:35:35;7.13;;;5.50;;
7406;SDS011;3745;56.964;24.128;2023-02-25T09:38:01;5.90;;;5.25;;
7406;SDS011;3745;56.964;24.128;2023-02-25T09:40:27;5.45;;;4.95;;
7406;SDS011;3745;56.964;24.128;2023-02-25T09:45:40;5.97;;;4.93;;
7406;SDS011;3745;56.964;24.128;2023-02-25T09:48:30;7.65;;;5.47;;
7406;SDS011;3745;56.964;24.128;2023-02-25T09:51:33;7.75;;;5.55;;
7406;SDS011;3745;56.964;24.128;2023-02-25T09:56:45;8.38;;;5.72;;
7406;SDS011;3745;56.964;24.128;2023-02-25T09:59:16;7.43;;;6.10;;
7406;SDS011;3745;56.964;24.128;2023-02-25T10:01:59;9.32;;;6.25;;
7406;SDS011;3745;56.964;24.128;2023-02-25T10:04:29;7.40;;;5.80;;
7406;SDS011;3745;56.964;24.128;2023-02-25T10:07:17;9.20;;;6.40;;
7406;SDS011;3745;56.964;24.128;2023-02-25T10:12:39;8.18;;;6.18;;
7406;SDS011;3745;56.964;24.128;2023-02-25T10:15:20;9.55;;;6.22;;
7406;SDS011;3745;56.964;24.128;2023-02-25T10:17:59;7.53;;;5.57;;
7406;SDS011;3745;56.964;24.128;2023-02-25T10:28:49;7.35;;;5.85;;
7406;SDS011;3745;56.964;24.128;2023-02-25T10:31:29;9.07;;;6.47;;
7406;SDS011;3745;56.964;24.128;2023-02-25T10:33:57;7.03;;;6.30;;
7406;SDS011;3745;56.964;24.128;2023-02-25T10:36:40;6.85;;;5.75;;
7406;SDS011;3745;56.964;24.128;2023-02-25T10:39:08;6.57;;;5.10;;
7406;SDS011;3745;56.964;24.128;2023-02-25T10:41:35;7.28;;;6.03;;
7406;SDS011;3745;56.964;24.128;2023-02-25T10:44:01;7.05;;;5.47;;
7406;SDS011;3745;56.964;24.128;2023-02-25T10:46:28;6.85;;;5.28;;
7406;SDS011;3745;56.964;24.128;2023-02-25T10:49:15;8.23;;;5.78;;
7406;SDS011;3745;56.964;24.128;2023-02-25T10:52:28;7.88;;;5.88;;
7406;SDS011;3745;56.964;24.128;2023-02-25T10:54:49;10.02;;;5.82;;
7406;SDS011;3745;56.964;24.128;2023-02-25T10:57:21;7.78;;;6.28;;
7406;SDS011;3745;56.964;24.128;2023-02-25T11:00:20;9.18;;;6.07;;
7406;SDS011;3745;56.964;24.128;2023-02-25T11:03:00;6.55;;;5.88;;
7406;SDS011;3745;56.964;24.128;2023-02-25T11:08:25;6.38;;;5.35;;
7406;SDS011;3745;56.964;24.128;2023-02-25T11:13:44;7.82;;;5.45;;
7406;SDS011;3745;56.964;24.128;2023-02-25T11:16:19;9.63;;;6.68;;
7406;SDS011;3745;56.964;24.128;2023-02-25T11:18:45;9.65;;;6.25;;
7406;SDS011;3745;56.964;24.128;2023-02-25T11:21:18;8.82;;;5.82;;
7406;SDS011;3745;56.964;24.128;2023-02-25T11:23:53;9.02;;;6.45;;
7406;SDS011;3745;56.964;24.128;2023-02-25T11:26:29;10.43;;;6.68;;
7406;SDS011;3745;56.964;24.128;2023-02-25T11:29:06;8.70;;;5.88;;
7406;SDS011;3745;56.964;24.128;2023-02-25T11:31:46;8.55;;;5.90;;
7406;SDS011;3745;56.964;24.128;2023-02-25T11:34:25;9.63;;;6.40;;
7406;SDS011;3745;56.964;24.128;2023-02-25T11:36:52;8.02;;;6.05;;
7406;SDS011;3745;56.964;24.128;2023-02-25T11:39:20;12.65;;;6.95;;
7406;SDS011;3745;56.964;24.128;2023-02-25T11:41:57;10.00;;;7.05;;
7406;SDS011;3745;56.964;24.128;2023-02-25T11:44:47;9.85;;;6.78;;
7406;SDS011;3745;56.964;24.128;2023-02-25T11:50:02;7.30;;;5.53;;
7406;SDS011;3745;56.964;24.128;2023-02-25T11:52:43;8.98;;;6.28;;
7406;SDS011;3745;56.964;24.128;2023-02-25T12:00:37;9.52;;;5.53;;
7406;SDS011;3745;56.964;24.128;2023-02-25T12:03:43;8.18;;;6.28;;
7406;SDS011;3745;56.964;24.128;2023-02-25T12:06:35;8.52;;;6.15;;
7406;SDS011;3745;56.964;24.128;2023-02-25T12:15:38;8.57;;;5.82;;
7406;SDS011;3745;56.964;24.128;2023-02-25T12:26:32;11.52;;;7.00;;
7406;SDS011;3745;56.964;24.128;2023-02-25T12:29:24;10.75;;;6.97;;
7406;SDS011;3745;56.964;24.128;2023-02-25T12:38:07;12.77;;;7.30;;
7406;SDS011;3745;56.964;24.128;2023-02-25T12:43:46;11.45;;;6.82;;
7406;SDS011;3745;56.964;24.128;2023-02-25T13:00:20;11.77;;;7.10;;
7406;SDS011;3745;56.964;24.128;2023-02-25T13:03:01;11.50;;;6.90;;
7406;SDS011;3745;56.964;24.128;2023-02-25T13:19:31;12.73;;;7.47;;
7406;SDS011;3745;56.964;24.128;2023-02-25T13:27:55;16.90;;;7.70;;
7406;SDS011;3745;56.964;24.128;2023-02-25T13:30:55;11.17;;;6.57;;
7406;SDS011;3745;56.964;24.128;2023-02-25T13:47:27;13.67;;;8.80;;
7406;SDS011;3745;56.964;24.128;2023-02-25T13:53:22;12.37;;;7.63;;
7406;SDS011;3745;56.964;24.128;2023-02-25T13:58:54;13.63;;;7.73;;
7406;SDS011;3745;56.964;24.128;2023-02-25T14:04:18;13.30;;;7.93;;
7406;SDS011;3745;56.964;24.128;2023-02-25T14:13:09;13.37;;;8.37;;
7406;SDS011;3745;56.964;24.128;2023-02-25T14:16:06;14.80;;;8.13;;
7406;SDS011;3745;56.964;24.128;2023-02-25T14:18:59;13.50;;;8.50;;
7406;SDS011;3745;56.964;24.128;2023-02-25T14:22:08;12.83;;;7.57;;
7406;SDS011;3745;56.964;24.128;2023-02-25T14:36:27;13.53;;;7.07;;
7406;SDS011;3745;56.964;24.128;2023-02-25T14:42:03;8.23;;;5.90;;
7406;SDS011;3745;56.964;24.128;2023-02-25T14:47:38;9.73;;;6.30;;
7406;SDS011;3745;56.964;24.128;2023-02-25T14:50:26;12.83;;;6.57;;
7406;SDS011;3745;56.964;24.128;2023-02-25T15:14:26;12.60;;;7.00;;
7406;SDS011;3745;56.964;24.128;2023-02-25T15:23:02;9.27;;;5.90;;
7406;SDS011;3745;56.964;24.128;2023-02-25T15:25:49;10.90;;;5.93;;
7406;SDS011;3745;56.964;24.128;2023-02-25T15:28:33;8.47;;;5.30;;
7406;SDS011;3745;56.964;24.128;2023-02-25T15:33:41;10.47;;;5.77;;
7406;SDS011;3745;56.964;24.128;2023-02-25T15:46:42;9.43;;;5.73;;
7406;SDS011;3745;56.964;24.128;2023-02-25T15:51:53;10.83;;;5.60;;
7406;SDS011;3745;56.964;24.128;2023-02-25T16:05:15;9.77;;;5.07;;
7406;SDS011;3745;56.964;24.128;2023-02-25T16:08:11;9.33;;;4.80;;
7406;SDS011;3745;56.964;24.128;2023-02-25T16:10:47;7.77;;;4.70;;
7406;SDS011;3745;56.964;24.128;2023-02-25T16:13:30;9.77;;;5.23;;
7406;SDS011;3745;56.964;24.128;2023-02-25T16:15:58;10.03;;;5.73;;
7406;SDS011;3745;56.964;24.128;2023-02-25T16:18:31;9.87;;;5.47;;
7406;SDS011;3745;56.964;24.128;2023-02-25T16:21:02;7.93;;;5.20;;
7406;SDS011;3745;56.964;24.128;2023-02-25T16:23:36;10.63;;;5.40;;
7406;SDS011;3745;56.964;24.128;2023-02-25T16:26:07;12.03;;;6.20;;
7406;SDS011;3745;56.964;24.128;2023-02-25T16:34:24;12.57;;;6.70;;
7406;SDS011;3745;56.964;24.128;2023-02-25T16:39:34;11.00;;;6.43;;
7406;SDS011;3745;56.964;24.128;2023-02-25T16:42:07;10.60;;;5.83;;
7406;SDS011;3745;56.964;24.128;2023-02-25T16:44:37;10.73;;;6.27;;
7406;SDS011;3745;56.964;24.128;2023-02-25T16:47:05;12.53;;;6.13;;
7406;SDS011;3745;56.964;24.128;2023-02-25T16:49:53;11.13;;;6.20;;
7406;SDS011;3745;56.964;24.128;2023-02-25T16:55:02;11.07;;;6.03;;
7406;SDS011;3745;56.964;24.128;2023-02-25T16:57:33;10.67;;;6.47;;
7406;SDS011;3745;56.964;24.128;2023-02-25T17:00:06;14.20;;;6.93;;
7406;SDS011;3745;56.964;24.128;2023-02-25T17:02:41;14.80;;;6.80;;
7406;SDS011;3745;56.964;24.128;2023-02-25T17:05:21;16.43;;;7.57;;
7406;SDS011;3745;56.964;24.128;2023-02-25T17:07:59;13.40;;;7.10;;
7406;SDS011;3745;56.964;24.128;2023-02-25T17:10:28;12.53;;;6.67;;
7406;SDS011;3745;56.964;24.128;2023-02-25T17:12:59;12.77;;;6.57;;
7406;SDS011;3745;56.964;24.128;2023-02-25T17:15:31;12.77;;;6.43;;
7406;SDS011;3745;56.964;24.128;2023-02-25T17:18:46;12.50;;;6.90;;
7406;SDS011;3745;56.964;24.128;2023-02-25T17:20:49;15.27;;;7.00;;
7406;SDS011;3745;56.964;24.128;2023-02-25T17:23:29;15.90;;;7.40;;
7406;SDS011;3745;56.964;24.128;2023-02-25T17:26:03;14.13;;;7.47;;
7406;SDS011;3745;56.964;24.128;2023-02-25T17:28:30;13.00;;;6.97;;
7406;SDS011;3745;56.964;24.128;2023-02-25T17:31:11;12.87;;;6.83;;
7406;SDS011;3745;56.964;24.128;2023-02-25T17:36:13;13.83;;;7.40;;
7406;SDS011;3745;56.964;24.128;2023-02-25T17:38:42;13.50;;;7.37;;
7406;SDS011;3745;56.964;24.128;2023-02-25T17:41:15;13.33;;;8.10;;
7406;SDS011;3745;56.964;24.128;2023-02-25T17:43:42;12.37;;;7.07;;
7406;SDS011;3745;56.964;24.128;2023-02-25T17:46:22;12.60;;;7.53;;
7406;SDS011;3745;56.964;24.128;2023-02-25T17:49:03;12.80;;;6.90;;
7406;SDS011;3745;56.964;24.128;2023-02-25T17:51:44;15.10;;;7.07;;
7406;SDS011;3745;56.964;24.128;2023-02-25T17:54:17;11.57;;;6.47;;
7406;SDS011;3745;56.964;24.128;2023-02-25T17:56:45;15.43;;;7.00;;
7406;SDS011;3745;56.964;24.128;2023-02-25T17:59:41;13.13;;;6.40;;
7406;SDS011;3745;56.964;24.128;2023-02-25T18:02:31;14.10;;;6.50;;
7406;SDS011;3745;56.964;24.128;2023-02-25T18:05:19;9.27;;;6.33;;
7406;SDS011;3745;56.964;24.128;2023-02-25T18:12:47;12.60;;;6.67;;
7406;SDS011;3745;56.964;24.128;2023-02-25T18:15:18;15.20;;;6.87;;
7406;SDS011;3745;56.964;24.128;2023-02-25T18:17:55;18.30;;;6.37;;
7406;SDS011;3745;56.964;24.128;2023-02-25T18:22:54;9.43;;;6.10;;
7406;SDS011;3745;56.964;24.128;2023-02-25T18:25:31;13.37;;;6.50;;
7406;SDS011;3745;56.964;24.128;2023-02-25T18:27:59;16.00;;;5.90;;
7406;SDS011;3745;56.964;24.128;2023-02-25T18:30:27;13.37;;;6.83;;
7406;SDS011;3745;56.964;24.128;2023-02-25T18:32:55;15.43;;;6.00;;
7406;SDS011;3745;56.964;24.128;2023-02-25T18:35:27;13.77;;;5.90;;
7406;SDS011;3745;56.964;24.128;2023-02-25T18:37:55;10.73;;;5.97;;
7406;SDS011;3745;56.964;24.128;2023-02-25T18:40:24;13.47;;;5.57;;
7406;SDS011;3745;56.964;24.128;2023-02-25T18:42:54;9.23;;;5.43;;
7406;SDS011;3745;56.964;24.128;2023-02-25T18:45:24;9.63;;;5.80;;
7406;SDS011;3745;56.964;24.128;2023-02-25T18:47:53;10.30;;;5.97;;
7406;SDS011;3745;56.964;24.128;2023-02-25T18:50:20;9.00;;;5.23;;
7406;SDS011;3745;56.964;24.128;2023-02-25T18:52:48;11.23;;;5.93;;
7406;SDS011;3745;56.964;24.128;2023-02-25T18:55:18;7.47;;;4.93;;
7406;SDS011;3745;56.964;24.128;2023-02-25T18:57:48;8.33;;;5.27;;
7406;SDS011;3745;56.964;24.128;2023-02-25T19:00:18;12.20;;;5.80;;
7406;SDS011;3745;56.964;24.128;2023-02-25T19:02:59;7.87;;;5.30;;
7406;SDS011;3745;56.964;24.128;2023-02-25T19:05:26;10.23;;;5.00;;
7406;SDS011;3745;56.964;24.128;2023-02-25T19:07:58;11.37;;;4.93;;